sensor_id;sensor_type;location;lat;lon;timestamp;pressure;altitude;pressure_sealevel;temperature;humidity
71764;BME280;59602;52.142;5.408;2023-02-08T00:00:54;104119.31;;;-0.77;84.37
71764;BME280;59602;52.142;5.408;2023-02-08T00:03:21;104118.72;;;-0.79;84.32
71764;BME280;59602;52.142;5.408;2023-02-08T00:05:48;104113.81;;;-0.82;84.31
71764;BME280;59602;52.142;5.408;2023-02-08T00:08:15;104114.84;;;-0.84;84.36
71764;BME280;59602;52.142;5.408;2023-02-08T00:10:42;104111.56;;;-0.86;84.22
71764;BME280;59602;52.142;5.408;2023-02-08T00:13:09;104117.72;;;-0.85;84.28
71764;BME280;59602;52.142;5.408;2023-02-08T00:15:40;104110.38;;;-0.90;84.28
71764;BME280;59602;52.142;5.408;2023-02-08T00:18:07;104112.44;;;-0.92;84.32
71764;BME280;59602;52.142;5.408;2023-02-08T00:20:34;104111.03;;;-0.94;84.36
71764;BME280;59602;52.142;5.408;2023-02-08T00:23:01;104113.69;;;-0.94;84.42
71764;BME280;59602;52.142;5.408;2023-02-08T00:25:28;104108.97;;;-0.92;84.28
71764;BME280;59602;52.142;5.408;2023-02-08T00:27:56;104108.16;;;-0.93;84.30
71764;BME280;59602;52.142;5.408;2023-02-08T00:30:23;104095.84;;;-0.94;84.24
71764;BME280;59602;52.142;5.408;2023-02-08T00:32:50;104090.72;;;-0.95;84.42
71764;BME280;59602;52.142;5.408;2023-02-08T00:35:18;104090.94;;;-0.97;84.60
71764;BME280;59602;52.142;5.408;2023-02-08T00:37:45;104097.53;;;-0.99;84.66
71764;BME280;59602;52.142;5.408;2023-02-08T00:40:12;104086.03;;;-1.00;84.71
71764;BME280;59602;52.142;5.408;2023-02-08T00:42:39;104082.56;;;-1.00;84.71
71764;BME280;59602;52.142;5.408;2023-02-08T00:45:06;104073.34;;;-1.05;84.75
71764;BME280;59602;52.142;5.408;2023-02-08T00:47:33;104075.63;;;-1.08;84.78
71764;BME280;59602;52.142;5.408;2023-02-08T00:49:59;104075.84;;;-1.10;84.41
71764;BME280;59602;52.142;5.408;2023-02-08T00:52:26;104078.91;;;-1.06;84.61
71764;BME280;59602;52.142;5.408;2023-02-08T00:54:53;104078.09;;;-1.07;84.50
71764;BME280;59602;52.142;5.408;2023-02-08T00:57:20;104072.97;;;-1.08;84.34
71764;BME280;59602;52.142;5.408;2023-02-08T00:59:46;104081.19;;;-1.10;84.50
71764;BME280;59602;52.142;5.408;2023-02-08T01:02:13;104074.00;;;-1.09;84.49
71764;BME280;59602;52.142;5.408;2023-02-08T01:04:40;104084.69;;;-1.09;84.41
71764;BME280;59602;52.142;5.408;2023-02-08T01:07:06;104086.97;;;-1.13;84.26
71764;BME280;59602;52.142;5.408;2023-02-08T01:09:33;104084.50;;;-1.14;84.31
71764;BME280;59602;52.142;5.408;2023-02-08T01:12:00;104077.53;;;-1.15;84.14
71764;BME280;59602;52.142;5.408;2023-02-08T01:14:27;104083.91;;;-1.16;84.02
71764;BME280;59602;52.142;5.408;2023-02-08T01:16:54;104084.16;;;-1.18;84.40
71764;BME280;59602;52.142;5.408;2023-02-08T01:19:20;104087.63;;;-1.17;84.32
71764;BME280;59602;52.142;5.408;2023-02-08T01:21:48;104100.16;;;-1.18;84.23
71764;BME280;59602;52.142;5.408;2023-02-08T01:24:15;104097.31;;;-1.23;84.46
71764;BME280;59602;52.142;5.408;2023-02-08T01:26:42;104105.91;;;-1.21;84.45
71764;BME280;59602;52.142;5.408;2023-02-08T01:29:08;104106.16;;;-1.22;84.46
71764;BME280;59602;52.142;5.408;2023-02-08T01:31:37;104104.50;;;-1.23;84.30
71764;BME280;59602;52.142;5.408;2023-02-08T01:34:05;104097.16;;;-1.28;84.50
71764;BME280;59602;52.142;5.408;2023-02-08T01:36:32;104095.53;;;-1.29;84.18
71764;BME280;59602;52.142;5.408;2023-02-08T01:38:59;104088.34;;;-1.29;84.74
71764;BME280;59602;52.142;5.408;2023-02-08T01:41:28;104084.41;;;-1.26;84.57
71764;BME280;59602;52.142;5.408;2023-02-08T01:46:40;104076.41;;;-1.26;84.61
71764;BME280;59602;52.142;5.408;2023-02-08T01:49:11;104082.19;;;-1.29;84.72
71764;BME280;59602;52.142;5.408;2023-02-08T01:51:48;104071.72;;;-1.31;84.52
71764;BME280;59602;52.142;5.408;2023-02-08T01:54:17;104078.09;;;-1.32;84.72
71764;BME280;59602;52.142;5.408;2023-02-08T01:56:46;104065.19;;;-1.35;84.72
71764;BME280;59602;52.142;5.408;2023-02-08T01:59:20;104074.44;;;-1.37;84.55
71764;BME280;59602;52.142;5.408;2023-02-08T02:01:52;104078.56;;;-1.41;84.61
71764;BME280;59602;52.142;5.408;2023-02-08T02:04:22;104079.38;;;-1.41;84.50
71764;BME280;59602;52.142;5.408;2023-02-08T02:06:51;104084.72;;;-1.41;84.88
71764;BME280;59602;52.142;5.408;2023-02-08T02:09:29;104083.09;;;-1.42;84.43
71764;BME280;59602;52.142;5.408;2023-02-08T02:11:57;104074.94;;;-1.47;84.77
71764;BME280;59602;52.142;5.408;2023-02-08T02:14:25;104070.81;;;-1.50;84.42
71764;BME280;59602;52.142;5.408;2023-02-08T02:16:52;104069.22;;;-1.51;84.48
71764;BME280;59602;52.142;5.408;2023-02-08T02:19:30;104064.31;;;-1.54;84.54
71764;BME280;59602;52.142;5.408;2023-02-08T02:25:02;104068.81;;;-1.54;84.83
71764;BME280;59602;52.142;5.408;2023-02-08T02:32:58;104062.06;;;-1.57;84.21
71764;BME280;59602;52.142;5.408;2023-02-08T02:40:33;104057.97;;;-1.59;84.15
71764;BME280;59602;52.142;5.408;2023-02-08T02:45:55;104049.97;;;-1.59;84.36
71764;BME280;59602;52.142;5.408;2023-02-08T02:48:27;104044.84;;;-1.61;84.24
71764;BME280;59602;52.142;5.408;2023-02-08T02:51:04;104057.16;;;-1.60;84.42
71764;BME280;59602;52.142;5.408;2023-02-08T02:53:39;104058.44;;;-1.62;83.87
71764;BME280;59602;52.142;5.408;2023-02-08T02:56:16;104060.28;;;-1.63;84.39
71764;BME280;59602;52.142;5.408;2023-02-08T02:58:44;104053.50;;;-1.65;84.21
71764;BME280;59602;52.142;5.408;2023-02-08T03:01:12;104060.09;;;-1.68;84.18
71764;BME280;59602;52.142;5.408;2023-02-08T03:03:39;104053.34;;;-1.71;84.05
71764;BME280;59602;52.142;5.408;2023-02-08T03:06:10;104051.28;;;-1.69;84.21
71764;BME280;59602;52.142;5.408;2023-02-08T03:08:53;104045.94;;;-1.69;84.18
71764;BME280;59602;52.142;5.408;2023-02-08T03:11:25;104046.75;;;-1.68;83.85
71764;BME280;59602;52.142;5.408;2023-02-08T03:19:17;104033.88;;;-1.71;83.88
71764;BME280;59602;52.142;5.408;2023-02-08T03:21:50;104034.66;;;-1.71;84.29
71764;BME280;59602;52.142;5.408;2023-02-08T03:27:14;104029.19;;;-1.76;83.81
71764;BME280;59602;52.142;5.408;2023-02-08T03:29:54;104036.56;;;-1.78;83.88
71764;BME280;59602;52.142;5.408;2023-02-08T03:32:31;104032.50;;;-1.80;83.83
71764;BME280;59602;52.142;5.408;2023-02-08T03:37:37;104034.56;;;-1.82;83.72
71764;BME280;59602;52.142;5.408;2023-02-08T03:40:10;104034.31;;;-1.81;83.58
71764;BME280;59602;52.142;5.408;2023-02-08T03:42:38;104043.38;;;-1.82;83.66
71764;BME280;59602;52.142;5.408;2023-02-08T03:45:11;104048.50;;;-1.80;83.95
71764;BME280;59602;52.142;5.408;2023-02-08T03:47:41;104045.59;;;-1.79;83.70
71764;BME280;59602;52.142;5.408;2023-02-08T03:50:11;104050.50;;;-1.76;84.34
71764;BME280;59602;52.142;5.408;2023-02-08T03:52:40;104055.25;;;-1.78;84.04
71764;BME280;59602;52.142;5.408;2023-02-08T03:55:11;104054.00;;;-1.75;84.04
71764;BME280;59602;52.142;5.408;2023-02-08T04:00:14;104048.44;;;-1.74;84.25
71764;BME280;59602;52.142;5.408;2023-02-08T04:02:48;104047.25;;;-1.78;83.74
71764;BME280;59602;52.142;5.408;2023-02-08T04:05:17;104047.66;;;-1.81;83.96
71764;BME280;59602;52.142;5.408;2023-02-08T04:07:44;104053.22;;;-1.82;84.04
71764;BME280;59602;52.142;5.408;2023-02-08T04:10:11;104048.09;;;-1.84;84.39
71764;BME280;59602;52.142;5.408;2023-02-08T04:12:38;104041.16;;;-1.85;83.66
71764;BME280;59602;52.142;5.408;2023-02-08T04:15:05;104047.50;;;-1.86;84.21
71764;BME280;59602;52.142;5.408;2023-02-08T04:17:32;104050.16;;;-1.86;84.24
71764;BME280;59602;52.142;5.408;2023-02-08T04:19:58;104045.63;;;-1.85;84.26
71764;BME280;59602;52.142;5.408;2023-02-08T04:22:25;104051.22;;;-1.87;84.14
71764;BME280;59602;52.142;5.408;2023-02-08T04:24:52;104051.84;;;-1.92;83.59
71764;BME280;59602;52.142;5.408;2023-02-08T04:27:18;104045.31;;;-1.96;83.71
71764;BME280;59602;52.142;5.408;2023-02-08T04:29:45;104048.78;;;-1.95;83.61
71764;BME280;59602;52.142;5.408;2023-02-08T04:32:12;104047.16;;;-1.96;83.76
71764;BME280;59602;52.142;5.408;2023-02-08T04:34:39;104049.22;;;-1.98;83.42
71764;BME280;59602;52.142;5.408;2023-02-08T04:37:07;104046.13;;;-1.95;83.83
71764;BME280;59602;52.142;5.408;2023-02-08T04:39:34;104049.38;;;-1.93;83.76
71764;BME280;59602;52.142;5.408;2023-02-08T04:42:02;104043.00;;;-1.92;83.17
71764;BME280;59602;52.142;5.408;2023-02-08T04:44:29;104039.97;;;-1.96;83.63
71764;BME280;59602;52.142;5.408;2023-02-08T04:46:58;104035.91;;;-1.98;83.66
71764;BME280;59602;52.142;5.408;2023-02-08T04:49:25;104027.91;;;-1.98;83.37
71764;BME280;59602;52.142;5.408;2023-02-08T04:51:52;104026.47;;;-2.01;83.69
71764;BME280;59602;52.142;5.408;2023-02-08T04:54:18;104023.81;;;-2.01;83.71
71764;BME280;59602;52.142;5.408;2023-02-08T04:56:45;104023.81;;;-2.01;83.86
71764;BME280;59602;52.142;5.408;2023-02-08T04:59:12;104020.91;;;-1.99;83.70
71764;BME280;59602;52.142;5.408;2023-02-08T05:01:38;104018.03;;;-1.98;83.89
71764;BME280;59602;52.142;5.408;2023-02-08T05:04:05;104020.09;;;-2.00;83.84
71764;BME280;59602;52.142;5.408;2023-02-08T05:06:32;104011.28;;;-2.00;83.89
71764;BME280;59602;52.142;5.408;2023-02-08T05:08:58;104016.03;;;-2.02;83.73
71764;BME280;59602;52.142;5.408;2023-02-08T05:11:25;104011.09;;;-2.05;84.05
71764;BME280;59602;52.142;5.408;2023-02-08T05:13:52;104016.44;;;-2.05;83.70
71764;BME280;59602;52.142;5.408;2023-02-08T05:16:18;104012.97;;;-2.06;83.72
71764;BME280;59602;52.142;5.408;2023-02-08T05:18:45;104007.84;;;-2.07;83.72
71764;BME280;59602;52.142;5.408;2023-02-08T05:21:11;104013.59;;;-2.11;83.33
71764;BME280;59602;52.142;5.408;2023-02-08T05:23:38;104011.56;;;-2.15;83.76
71764;BME280;59602;52.142;5.408;2023-02-08T05:26:06;104010.16;;;-2.18;83.45
71764;BME280;59602;52.142;5.408;2023-02-08T05:28:33;104015.28;;;-2.16;83.41
71764;BME280;59602;52.142;5.408;2023-02-08T05:31:10;104010.97;;;-2.17;83.45
71764;BME280;59602;52.142;5.408;2023-02-08T05:33:37;104002.97;;;-2.17;83.62
71764;BME280;59602;52.142;5.408;2023-02-08T05:36:05;104009.97;;;-2.16;83.34
71764;BME280;59602;52.142;5.408;2023-02-08T05:38:31;104017.13;;;-2.17;83.49
71764;BME280;59602;52.142;5.408;2023-02-08T05:40:58;104016.53;;;-2.19;83.14
71764;BME280;59602;52.142;5.408;2023-02-08T05:43:24;104011.63;;;-2.22;83.22
71764;BME280;59602;52.142;5.408;2023-02-08T05:45:51;104016.13;;;-2.22;82.88
71764;BME280;59602;52.142;5.408;2023-02-08T05:48:18;104023.53;;;-2.24;83.00
71764;BME280;59602;52.142;5.408;2023-02-08T05:50:45;104017.59;;;-2.26;83.41
71764;BME280;59602;52.142;5.408;2023-02-08T05:53:12;104010.63;;;-2.27;83.61
71764;BME280;59602;52.142;5.408;2023-02-08T05:55:39;104012.47;;;-2.28;83.35
71764;BME280;59602;52.142;5.408;2023-02-08T05:58:08;104001.81;;;-2.28;83.46
71764;BME280;59602;52.142;5.408;2023-02-08T06:00:35;104003.03;;;-2.31;83.25
71764;BME280;59602;52.142;5.408;2023-02-08T06:03:02;103994.44;;;-2.33;83.10
71764;BME280;59602;52.142;5.408;2023-02-08T06:05:29;103997.75;;;-2.37;83.06
71764;BME280;59602;52.142;5.408;2023-02-08T06:07:56;104002.06;;;-2.36;82.88
71764;BME280;59602;52.142;5.408;2023-02-08T06:10:23;104003.31;;;-2.39;82.80
71764;BME280;59602;52.142;5.408;2023-02-08T06:12:49;104003.53;;;-2.40;82.60
71764;BME280;59602;52.142;5.408;2023-02-08T06:15:16;103997.38;;;-2.41;82.45
71764;BME280;59602;52.142;5.408;2023-02-08T06:17:43;104003.72;;;-2.42;82.36
71764;BME280;59602;52.142;5.408;2023-02-08T06:20:10;104009.47;;;-2.45;82.61
71764;BME280;59602;52.142;5.408;2023-02-08T06:22:37;104008.88;;;-2.47;82.40
71764;BME280;59602;52.142;5.408;2023-02-08T06:25:04;104014.22;;;-2.47;82.55
71764;BME280;59602;52.142;5.408;2023-02-08T06:27:31;104013.56;;;-2.42;82.59
71764;BME280;59602;52.142;5.408;2023-02-08T06:29:58;104010.09;;;-2.43;82.21
71764;BME280;59602;52.142;5.408;2023-02-08T06:32:25;104015.81;;;-2.46;82.17
71764;BME280;59602;52.142;5.408;2023-02-08T06:34:51;104016.06;;;-2.47;82.59
71764;BME280;59602;52.142;5.408;2023-02-08T06:37:18;104020.97;;;-2.51;82.12
71764;BME280;59602;52.142;5.408;2023-02-08T06:39:44;104016.69;;;-2.52;82.54
71764;BME280;59602;52.142;5.408;2023-02-08T06:42:11;104018.53;;;-2.53;82.44
71764;BME280;59602;52.142;5.408;2023-02-08T06:44:38;104015.84;;;-2.53;82.51
71764;BME280;59602;52.142;5.408;2023-02-08T06:47:19;104019.13;;;-2.51;82.58
71764;BME280;59602;52.142;5.408;2023-02-08T06:49:47;104017.88;;;-2.48;82.93
71764;BME280;59602;52.142;5.408;2023-02-08T06:52:13;104016.88;;;-2.47;82.61
71764;BME280;59602;52.142;5.408;2023-02-08T06:54:40;104020.78;;;-2.49;82.90
71764;BME280;59602;52.142;5.408;2023-02-08T06:57:07;104011.38;;;-2.52;82.68
71764;BME280;59602;52.142;5.408;2023-02-08T06:59:34;104013.19;;;-2.53;82.79
71764;BME280;59602;52.142;5.408;2023-02-08T07:02:01;104007.25;;;-2.55;82.65
71764;BME280;59602;52.142;5.408;2023-02-08T07:04:27;104001.13;;;-2.55;82.71
71764;BME280;59602;52.142;5.408;2023-02-08T07:06:54;104001.34;;;-2.57;82.00
71764;BME280;59602;52.142;5.408;2023-02-08T07:09:21;103998.88;;;-2.58;82.38
71764;BME280;59602;52.142;5.408;2023-02-08T07:11:48;103997.25;;;-2.59;82.74
71764;BME280;59602;52.142;5.408;2023-02-08T07:14:14;103996.22;;;-2.58;82.75
71764;BME280;59602;52.142;5.408;2023-02-08T07:16:41;103998.88;;;-2.58;82.61
71764;BME280;59602;52.142;5.408;2023-02-08T07:19:08;104001.56;;;-2.58;82.29
71764;BME280;59602;52.142;5.408;2023-02-08T07:21:34;104000.31;;;-2.56;82.69
71764;BME280;59602;52.142;5.408;2023-02-08T07:24:02;104011.56;;;-2.54;82.91
71764;BME280;59602;52.142;5.408;2023-02-08T07:26:30;104016.50;;;-2.57;82.66
71764;BME280;59602;52.142;5.408;2023-02-08T07:28:57;104013.81;;;-2.57;82.47
71764;BME280;59602;52.142;5.408;2023-02-08T07:31:23;104022.84;;;-2.58;82.61
71764;BME280;59602;52.142;5.408;2023-02-08T07:33:50;104021.81;;;-2.57;82.48
71764;BME280;59602;52.142;5.408;2023-02-08T07:36:17;104026.75;;;-2.54;82.75
71764;BME280;59602;52.142;5.408;2023-02-08T07:38:44;104022.41;;;-2.48;82.92
71764;BME280;59602;52.142;5.408;2023-02-08T07:41:12;104013.78;;;-2.44;83.20
71764;BME280;59602;52.142;5.408;2023-02-08T07:43:40;104021.13;;;-2.39;83.27
71764;BME280;59602;52.142;5.408;2023-02-08T07:46:07;104003.31;;;-2.39;83.06
71764;BME280;59602;52.142;5.408;2023-02-08T07:48:36;104002.88;;;-2.36;83.15
71764;BME280;59602;52.142;5.408;2023-02-08T07:51:06;104002.69;;;-2.34;83.63
71764;BME280;59602;52.142;5.408;2023-02-08T07:53:33;103995.88;;;-2.30;83.45
71764;BME280;59602;52.142;5.408;2023-02-08T07:56:00;103998.72;;;-2.25;83.71
71764;BME280;59602;52.142;5.408;2023-02-08T07:58:27;103998.28;;;-2.22;83.71
71764;BME280;59602;52.142;5.408;2023-02-08T08:00:54;103990.28;;;-2.22;83.09
71764;BME280;59602;52.142;5.408;2023-02-08T08:03:20;103994.16;;;-2.18;83.42
71764;BME280;59602;52.142;5.408;2023-02-08T08:05:48;103997.25;;;-2.14;83.17
71764;BME280;59602;52.142;5.408;2023-02-08T08:08:19;103981.63;;;-2.11;83.29
71764;BME280;59602;52.142;5.408;2023-02-08T08:10:46;103972.59;;;-2.10;83.65
71764;BME280;59602;52.142;5.408;2023-02-08T08:13:13;103980.38;;;-2.08;83.75
71764;BME280;59602;52.142;5.408;2023-02-08T08:15:39;103983.88;;;-2.07;83.95
71764;BME280;59602;52.142;5.408;2023-02-08T08:18:06;103988.75;;;-2.04;83.31
71764;BME280;59602;52.142;5.408;2023-02-08T08:20:35;103984.84;;;-2.02;83.77
71764;BME280;59602;52.142;5.408;2023-02-08T08:23:03;103992.41;;;-1.99;83.71
71764;BME280;59602;52.142;5.408;2023-02-08T08:25:29;103983.19;;;-1.96;83.92
71764;BME280;59602;52.142;5.408;2023-02-08T08:27:56;103986.22;;;-1.93;84.04
71764;BME280;59602;52.142;5.408;2023-02-08T08:30:23;103975.94;;;-1.89;83.99
71764;BME280;59602;52.142;5.408;2023-02-08T08:32:51;103973.44;;;-1.84;84.01
71764;BME280;59602;52.142;5.408;2023-02-08T08:35:18;103973.81;;;-1.80;84.25
71764;BME280;59602;52.142;5.408;2023-02-08T08:37:44;103973.97;;;-1.75;84.39
71764;BME280;59602;52.142;5.408;2023-02-08T08:40:11;103968.81;;;-1.70;84.12
71764;BME280;59602;52.142;5.408;2023-02-08T08:42:39;103972.66;;;-1.66;84.45
71764;BME280;59602;52.142;5.408;2023-02-08T08:45:07;103971.59;;;-1.58;84.45
71764;BME280;59602;52.142;5.408;2023-02-08T08:47:34;103972.75;;;-1.54;84.16
71764;BME280;59602;52.142;5.408;2023-02-08T08:50:02;103971.09;;;-1.49;84.74
71764;BME280;59602;52.142;5.408;2023-02-08T08:52:28;103972.63;;;-1.41;84.74
71764;BME280;59602;52.142;5.408;2023-02-08T08:54:55;103977.91;;;-1.34;84.84
71764;BME280;59602;52.142;5.408;2023-02-08T08:57:22;103970.09;;;-1.29;84.96
71764;BME280;59602;52.142;5.408;2023-02-08T08:59:48;103967.78;;;-1.26;84.92
71764;BME280;59602;52.142;5.408;2023-02-08T09:02:15;103973.03;;;-1.19;84.57
71764;BME280;59602;52.142;5.408;2023-02-08T09:04:41;103970.56;;;-1.14;84.85
71764;BME280;59602;52.142;5.408;2023-02-08T09:07:09;103972.31;;;-1.08;84.43
71764;BME280;59602;52.142;5.408;2023-02-08T09:09:35;103969.56;;;-1.01;84.16
71764;BME280;59602;52.142;5.408;2023-02-08T09:12:02;103979.38;;;-0.95;84.71
71764;BME280;59602;52.142;5.408;2023-02-08T09:14:29;103970.47;;;-0.89;84.98
71764;BME280;59602;52.142;5.408;2023-02-08T09:16:56;103970.13;;;-0.80;84.96
71764;BME280;59602;52.142;5.408;2023-02-08T09:19:23;103974.38;;;-0.73;84.48
71764;BME280;59602;52.142;5.408;2023-02-08T09:21:49;103971.63;;;-0.66;84.87
71764;BME280;59602;52.142;5.408;2023-02-08T09:24:16;103972.34;;;-0.59;84.36
71764;BME280;59602;52.142;5.408;2023-02-08T09:26:43;103980.50;;;-0.54;84.22
71764;BME280;59602;52.142;5.408;2023-02-08T09:29:11;103978.78;;;-0.48;84.25
71764;BME280;59602;52.142;5.408;2023-02-08T09:31:38;103974.38;;;-0.43;84.36
71764;BME280;59602;52.142;5.408;2023-02-08T09:34:05;103974.28;;;-0.36;84.28
71764;BME280;59602;52.142;5.408;2023-02-08T09:36:35;103976.31;;;-0.31;84.40
71764;BME280;59602;52.142;5.408;2023-02-08T09:39:13;103975.38;;;-0.25;84.21
71764;BME280;59602;52.142;5.408;2023-02-08T09:46:50;103984.53;;;-0.03;84.31
71764;BME280;59602;52.142;5.408;2023-02-08T09:49:25;103980.47;;;0.07;83.78
71764;BME280;59602;52.142;5.408;2023-02-08T09:51:58;103985.72;;;0.13;83.58
71764;BME280;59602;52.142;5.408;2023-02-08T09:54:32;103989.56;;;0.17;83.34
71764;BME280;59602;52.142;5.408;2023-02-08T09:57:03;103984.56;;;0.21;83.39
71764;BME280;59602;52.142;5.408;2023-02-08T09:59:33;103974.78;;;0.27;83.15
71764;BME280;59602;52.142;5.408;2023-02-08T10:02:14;103975.53;;;0.34;83.45
71764;BME280;59602;52.142;5.408;2023-02-08T10:07:27;103972.47;;;0.42;83.39
71764;BME280;59602;52.142;5.408;2023-02-08T10:09:57;103974.47;;;0.47;82.32
71764;BME280;59602;52.142;5.408;2023-02-08T10:15:15;103977.16;;;0.58;81.64
71764;BME280;59602;52.142;5.408;2023-02-08T10:20:41;103984.38;;;0.70;80.66
71764;BME280;59602;52.142;5.408;2023-02-08T10:28:28;103982.72;;;0.92;79.20
71764;BME280;59602;52.142;5.408;2023-02-08T10:31:15;103994.13;;;0.99;79.87
71764;BME280;59602;52.142;5.408;2023-02-08T10:34:00;103990.50;;;1.06;79.70
71764;BME280;59602;52.142;5.408;2023-02-08T10:36:31;104000.28;;;1.12;79.39
71764;BME280;59602;52.142;5.408;2023-02-08T10:38:59;103994.78;;;1.18;78.93
71764;BME280;59602;52.142;5.408;2023-02-08T10:41:32;103995.69;;;1.24;78.72
71764;BME280;59602;52.142;5.408;2023-02-08T10:44:11;104007.09;;;1.31;78.52
71764;BME280;59602;52.142;5.408;2023-02-08T10:46:46;104002.06;;;1.35;79.00
71764;BME280;59602;52.142;5.408;2023-02-08T10:49:23;103989.00;;;1.38;78.87
71764;BME280;59602;52.142;5.408;2023-02-08T10:51:52;103989.44;;;1.47;78.29
71764;BME280;59602;52.142;5.408;2023-02-08T10:54:19;103990.34;;;1.53;77.69
71764;BME280;59602;52.142;5.408;2023-02-08T10:56:53;103984.84;;;1.59;76.84
71764;BME280;59602;52.142;5.408;2023-02-08T10:59:28;103983.31;;;1.63;75.93
71764;BME280;59602;52.142;5.408;2023-02-08T11:01:56;103985.84;;;1.70;75.94
71764;BME280;59602;52.142;5.408;2023-02-08T11:04:24;103977.91;;;1.75;75.40
71764;BME280;59602;52.142;5.408;2023-02-08T11:06:51;103970.19;;;1.79;75.48
71764;BME280;59602;52.142;5.408;2023-02-08T11:09:28;103968.41;;;1.84;74.64
71764;BME280;59602;52.142;5.408;2023-02-08T11:11:57;103969.53;;;1.89;74.84
71764;BME280;59602;52.142;5.408;2023-02-08T11:14:28;103958.31;;;1.92;74.39
71764;BME280;59602;52.142;5.408;2023-02-08T11:17:24;103969.97;;;1.97;74.28
71764;BME280;59602;52.142;5.408;2023-02-08T11:19:53;103972.72;;;2.02;74.23
71764;BME280;59602;52.142;5.408;2023-02-08T11:22:23;103978.16;;;2.07;73.93
71764;BME280;59602;52.142;5.408;2023-02-08T11:24:56;103975.59;;;2.13;74.25
71764;BME280;59602;52.142;5.408;2023-02-08T11:27:32;103970.06;;;2.19;74.64
71764;BME280;59602;52.142;5.408;2023-02-08T11:32:40;103962.16;;;2.29;71.95
71764;BME280;59602;52.142;5.408;2023-02-08T11:37:55;103950.03;;;2.44;70.70
71764;BME280;59602;52.142;5.408;2023-02-08T11:40:25;103953.00;;;2.47;71.11
71764;BME280;59602;52.142;5.408;2023-02-08T11:42:54;103942.84;;;2.49;71.00
71764;BME280;59602;52.142;5.408;2023-02-08T11:45:24;103942.94;;;2.55;70.83
71764;BME280;59602;52.142;5.408;2023-02-08T11:47:51;103932.47;;;2.58;70.21
71764;BME280;59602;52.142;5.408;2023-02-08T11:50:32;103925.88;;;2.66;70.70
71764;BME280;59602;52.142;5.408;2023-02-08T11:53:05;103928.63;;;2.71;71.22
71764;BME280;59602;52.142;5.408;2023-02-08T11:55:33;103928.41;;;2.73;70.33
71764;BME280;59602;52.142;5.408;2023-02-08T11:58:03;103927.88;;;2.76;69.56
71764;BME280;59602;52.142;5.408;2023-02-08T12:00:33;103925.81;;;2.83;68.90
71764;BME280;59602;52.142;5.408;2023-02-08T12:03:06;103916.72;;;2.84;68.11
71764;BME280;59602;52.142;5.408;2023-02-08T12:05:47;103911.63;;;2.87;70.03
71764;BME280;59602;52.142;5.408;2023-02-08T12:08:30;103912.75;;;2.91;68.32
71764;BME280;59602;52.142;5.408;2023-02-08T12:11:05;103893.75;;;2.98;68.24
71764;BME280;59602;52.142;5.408;2023-02-08T12:13:49;103891.38;;;3.02;68.05
71764;BME280;59602;52.142;5.408;2023-02-08T12:16:48;103893.31;;;3.06;68.16
71764;BME280;59602;52.142;5.408;2023-02-08T12:22:16;103894.97;;;3.12;67.35
71764;BME280;59602;52.142;5.408;2023-02-08T12:24:58;103889.59;;;3.12;67.43
71764;BME280;59602;52.142;5.408;2023-02-08T12:30:08;103859.31;;;3.17;68.09
71764;BME280;59602;52.142;5.408;2023-02-08T12:41:30;103847.97;;;3.42;65.56
71764;BME280;59602;52.142;5.408;2023-02-08T12:44:09;103837.75;;;3.44;65.78
71764;BME280;59602;52.142;5.408;2023-02-08T12:47:09;103838.88;;;3.48;65.53
71764;BME280;59602;52.142;5.408;2023-02-08T12:52:32;103831.66;;;3.54;65.31
71764;BME280;59602;52.142;5.408;2023-02-08T12:55:13;103827.94;;;3.60;65.53
71764;BME280;59602;52.142;5.408;2023-02-08T12:57:43;103824.47;;;3.65;64.07
71764;BME280;59602;52.142;5.408;2023-02-08T13:00:24;103817.50;;;3.69;63.39
71764;BME280;59602;52.142;5.408;2023-02-08T13:05:28;103813.75;;;3.75;64.40
71764;BME280;59602;52.142;5.408;2023-02-08T13:08:06;103822.66;;;3.76;64.96
71764;BME280;59602;52.142;5.408;2023-02-08T13:10:38;103817.00;;;3.77;64.53
71764;BME280;59602;52.142;5.408;2023-02-08T13:13:14;103807.88;;;3.78;65.42
71764;BME280;59602;52.142;5.408;2023-02-08T13:15:56;103811.38;;;3.79;62.19
71764;BME280;59602;52.142;5.408;2023-02-08T13:18:28;103806.84;;;3.84;60.58
71764;BME280;59602;52.142;5.408;2023-02-08T13:21:05;103810.34;;;3.85;60.47
71764;BME280;59602;52.142;5.408;2023-02-08T13:23:37;103804.72;;;3.86;61.53
71764;BME280;59602;52.142;5.408;2023-02-08T13:26:20;103800.94;;;3.87;60.60
71764;BME280;59602;52.142;5.408;2023-02-08T13:28:51;103797.44;;;3.87;63.20
71764;BME280;59602;52.142;5.408;2023-02-08T13:31:23;103794.22;;;3.90;60.66
71764;BME280;59602;52.142;5.408;2023-02-08T13:33:55;103797.22;;;3.93;62.54
71764;BME280;59602;52.142;5.408;2023-02-08T13:36:31;103779.19;;;3.94;63.47
71764;BME280;59602;52.142;5.408;2023-02-08T13:38:59;103788.06;;;3.94;63.65
71764;BME280;59602;52.142;5.408;2023-02-08T13:41:27;103775.16;;;3.97;61.60
71764;BME280;59602;52.142;5.408;2023-02-08T13:46:53;103762.53;;;4.02;60.33
71764;BME280;59602;52.142;5.408;2023-02-08T13:50:42;103757.72;;;4.09;59.17
71764;BME280;59602;52.142;5.408;2023-02-08T13:53:15;103752.09;;;4.16;58.39
71764;BME280;59602;52.142;5.408;2023-02-08T13:55:57;103753.19;;;4.20;57.85
71764;BME280;59602;52.142;5.408;2023-02-08T13:58:28;103747.53;;;4.22;58.01
71764;BME280;59602;52.142;5.408;2023-02-08T14:01:13;103745.13;;;4.25;57.90
71764;BME280;59602;52.142;5.408;2023-02-08T14:03:41;103749.44;;;4.26;56.47
71764;BME280;59602;52.142;5.408;2023-02-08T14:06:22;103751.88;;;4.28;56.99
71764;BME280;59602;52.142;5.408;2023-02-08T14:08:56;103751.06;;;4.32;58.44
71764;BME280;59602;52.142;5.408;2023-02-08T14:11:41;103748.13;;;4.34;58.10
71764;BME280;59602;52.142;5.408;2023-02-08T14:14:13;103746.78;;;4.36;57.34
71764;BME280;59602;52.142;5.408;2023-02-08T14:16:44;103737.59;;;4.37;57.04
71764;BME280;59602;52.142;5.408;2023-02-08T14:21:44;103742.75;;;4.39;55.11
71764;BME280;59602;52.142;5.408;2023-02-08T14:24:23;103739.78;;;4.41;56.03
71764;BME280;59602;52.142;5.408;2023-02-08T14:27:16;103726.31;;;4.41;58.50
71764;BME280;59602;52.142;5.408;2023-02-08T14:29:59;103723.63;;;4.41;58.02